PWSweather.com
Personal Weather Stations
Station Observations
948974
Valtournenche, AostaIT 11028

ValtournencheAostaIT 11028

Lat: 45.877222, Lon: 7.625556

Elevation: 5085.3018

Station Type: PCE-FWS 20

http://www.cdso.it

High Low Average
Temperature 64.4°F18.0°C 44.1°F6.7°C 52.2°F11.2°C
Dew Point 53.0°F11.7°C 35.3°F1.8°C 43.9°F6.6°C
Winds 7.0 mph 11.3 kmh Calm Calm 3.0 mph SSE4.8 kmh SSE
Wind Gusts 11.0 mph17.7 kmh 2.0 mph3.2 kmh 5.0 mph8.0 kmh
Humidity 95% 52% 74%
Pressure 30.14 in1020.7 mb 29.84 in1010.5 mb -
Precipitation 0.00 in0.0 mm - -
Hour Temp Dew Point Humidity Winds Wind Gusts Pressure Precip Precip Rate Daily Precip Total
12:03 AM 48.0°F8.9°C 39.5°F4.2°C 72% 5.0 mph NE8.0 kmh NE 9.0 mph14.5 kmh 30.13 in1020.3 mb 0.00 in0.0 mm 0.00 in0.0 mm 0.00 in0.0 mm
12:21 AM 46.7°F8.2°C 39.4°F4.1°C 76% 2.0 mph NE3.2 kmh NE 4.0 mph6.4 kmh 30.14 in1020.7 mb 0.00 in0.0 mm 0.00 in0.0 mm 0.00 in0.0 mm
12:42 AM 46.4°F8.0°C 39.6°F4.2°C 77% 3.0 mph NE4.8 kmh NE 4.0 mph6.4 kmh 30.13 in1020.3 mb 0.00 in0.0 mm 0.00 in0.0 mm 0.00 in0.0 mm
01:03 AM 45.8°F7.7°C 38.9°F3.8°C 77% 2.0 mph NE3.2 kmh NE 4.0 mph6.4 kmh 30.14 in1020.7 mb 0.00 in0.0 mm 0.00 in0.0 mm 0.00 in0.0 mm
01:21 AM 46.0°F7.8°C 38.9°F3.8°C 76% 2.0 mph NE3.2 kmh NE 4.0 mph6.4 kmh 30.14 in1020.7 mb 0.00 in0.0 mm 0.00 in0.0 mm 0.00 in0.0 mm
01:42 AM 46.5°F8.1°C 38.8°F3.8°C 74% 3.0 mph NE4.8 kmh NE 6.0 mph9.7 kmh 30.13 in1020.3 mb 0.00 in0.0 mm 0.00 in0.0 mm 0.00 in0.0 mm
02:03 AM 47.4°F8.6°C 38.9°F3.8°C 72% 3.0 mph NE4.8 kmh NE 7.0 mph11.3 kmh 30.12 in1020.0 mb 0.00 in0.0 mm 0.00 in0.0 mm 0.00 in0.0 mm
02:21 AM 47.0°F8.3°C 39.0°F3.9°C 74% 2.0 mph NE3.2 kmh NE 4.0 mph6.4 kmh 30.11 in1019.6 mb 0.00 in0.0 mm 0.00 in0.0 mm 0.00 in0.0 mm
02:42 AM 46.4°F8.0°C 39.2°F4.0°C 76% 2.0 mph NE3.2 kmh NE 6.0 mph9.7 kmh 30.12 in1020.0 mb 0.00 in0.0 mm 0.00 in0.0 mm 0.00 in0.0 mm
03:03 AM 45.7°F7.6°C 38.7°F3.7°C 76% 2.0 mph NE3.2 kmh NE 6.0 mph9.7 kmh 30.12 in1020.0 mb 0.00 in0.0 mm 0.00 in0.0 mm 0.00 in0.0 mm
03:21 AM 45.2°F7.3°C 38.2°F3.4°C 76% 2.0 mph NE3.2 kmh NE 4.0 mph6.4 kmh 30.13 in1020.3 mb 0.00 in0.0 mm 0.00 in0.0 mm 0.00 in0.0 mm
03:42 AM 45.6°F7.6°C 38.4°F3.6°C 76% 2.0 mph NE3.2 kmh NE 7.0 mph11.3 kmh 30.12 in1020.0 mb 0.00 in0.0 mm 0.00 in0.0 mm 0.00 in0.0 mm
04:03 AM 45.9°F7.7°C 37.7°F3.2°C 73% 4.0 mph NE6.4 kmh NE 8.0 mph12.9 kmh 30.11 in1019.6 mb 0.00 in0.0 mm 0.00 in0.0 mm 0.00 in0.0 mm
04:21 AM 46.1°F7.8°C 37.1°F2.8°C 71% 2.0 mph NE3.2 kmh NE 4.0 mph6.4 kmh 30.11 in1019.6 mb 0.00 in0.0 mm 0.00 in0.0 mm 0.00 in0.0 mm
04:42 AM 44.7°F7.1°C 37.0°F2.8°C 74% 2.0 mph NE3.2 kmh NE 4.0 mph6.4 kmh 30.12 in1020.0 mb 0.00 in0.0 mm 0.00 in0.0 mm 0.00 in0.0 mm
05:03 AM 46.2°F7.9°C 37.0°F2.8°C 70% 4.0 mph NE6.4 kmh NE 8.0 mph12.9 kmh 30.10 in1019.3 mb 0.00 in0.0 mm 0.00 in0.0 mm 0.00 in0.0 mm
05:42 AM 44.9°F7.2°C 36.0°F2.2°C 71% 3.0 mph NE4.8 kmh NE 4.0 mph6.4 kmh 30.12 in1020.0 mb 0.00 in0.0 mm 0.00 in0.0 mm 0.00 in0.0 mm
06:03 AM 44.5°F6.9°C 35.8°F2.1°C 71% 2.0 mph NE3.2 kmh NE 4.0 mph6.4 kmh 30.12 in1020.0 mb 0.00 in0.0 mm 0.00 in0.0 mm 0.00 in0.0 mm
06:21 AM 44.1°F6.7°C 36.1°F2.3°C 73% 3.0 mph NE4.8 kmh NE 4.0 mph6.4 kmh 30.13 in1020.3 mb 0.00 in0.0 mm 0.00 in0.0 mm 0.00 in0.0 mm
06:42 AM 45.6°F7.6°C 35.6°F2.0°C 68% 3.0 mph NE4.8 kmh NE 7.0 mph11.3 kmh 30.11 in1019.6 mb 0.00 in0.0 mm 0.00 in0.0 mm 0.00 in0.0 mm
07:03 AM 45.5°F7.5°C 35.7°F2.1°C 68% 3.0 mph NE4.8 kmh NE 7.0 mph11.3 kmh 30.11 in1019.6 mb 0.00 in0.0 mm 0.00 in0.0 mm 0.00 in0.0 mm
07:21 AM 44.9°F7.2°C 35.3°F1.8°C 69% 2.0 mph NE3.2 kmh NE 4.0 mph6.4 kmh 30.12 in1020.0 mb 0.00 in0.0 mm 0.00 in0.0 mm 0.00 in0.0 mm
07:42 AM 44.9°F7.2°C 35.5°F1.9°C 70% 2.0 mph NE3.2 kmh NE 3.0 mph4.8 kmh 30.12 in1020.0 mb 0.00 in0.0 mm 0.00 in0.0 mm 0.00 in0.0 mm
08:03 AM 44.7°F7.1°C 35.9°F2.2°C 71% 2.0 mph NE3.2 kmh NE 4.0 mph6.4 kmh 30.13 in1020.3 mb 0.00 in0.0 mm 0.00 in0.0 mm 0.00 in0.0 mm
08:21 AM 45.0°F7.2°C 36.7°F2.6°C 72% 3.0 mph NE4.8 kmh NE 4.0 mph6.4 kmh 30.13 in1020.3 mb 0.00 in0.0 mm 0.00 in0.0 mm 0.00 in0.0 mm
08:42 AM 45.9°F7.7°C 38.0°F3.3°C 74% 2.0 mph NE3.2 kmh NE 4.0 mph6.4 kmh 30.12 in1020.0 mb 0.00 in0.0 mm 0.00 in0.0 mm 0.00 in0.0 mm
09:03 AM 51.2°F10.7°C 40.3°F4.6°C 66% 3.0 mph NE4.8 kmh NE 4.0 mph6.4 kmh 30.06 in1017.9 mb 0.00 in0.0 mm 0.00 in0.0 mm 0.00 in0.0 mm
09:21 AM 54.8°F12.7°C 39.2°F4.0°C 56% 3.0 mph NE4.8 kmh NE 4.0 mph6.4 kmh 30.02 in1016.6 mb 0.00 in0.0 mm 0.00 in0.0 mm 0.00 in0.0 mm
09:42 AM 57.6°F14.2°C 40.6°F4.8°C 53% 1.0 mph NE1.6 kmh NE 4.0 mph6.4 kmh 29.99 in1015.6 mb 0.00 in0.0 mm 0.00 in0.0 mm 0.00 in0.0 mm
10:03 AM 57.0°F13.9°C 39.6°F4.2°C 52% 3.0 mph NE4.8 kmh NE 5.0 mph8.0 kmh 29.99 in1015.6 mb 0.00 in0.0 mm 0.00 in0.0 mm 0.00 in0.0 mm
10:21 AM 55.6°F13.1°C 41.4°F5.2°C 59% 4.0 mph NE6.4 kmh NE 6.0 mph9.7 kmh 30.01 in1016.3 mb 0.00 in0.0 mm 0.00 in0.0 mm 0.00 in0.0 mm
10:42 AM 57.2°F14.0°C 43.6°F6.4°C 60% 3.0 mph W4.8 kmh W 6.0 mph9.7 kmh 29.99 in1015.6 mb 0.00 in0.0 mm 0.00 in0.0 mm 0.00 in0.0 mm
11:03 AM 58.7°F14.8°C 45.2°F7.3°C 61% 3.0 mph W4.8 kmh W 4.0 mph6.4 kmh 29.96 in1014.6 mb 0.00 in0.0 mm 0.00 in0.0 mm 0.00 in0.0 mm
11:21 AM 59.1°F15.1°C 46.0°F7.8°C 62% 4.0 mph W6.4 kmh W 6.0 mph9.7 kmh 29.96 in1014.6 mb 0.00 in0.0 mm 0.00 in0.0 mm 0.00 in0.0 mm
11:42 AM 59.6°F15.3°C 46.3°F7.9°C 61% 4.0 mph W6.4 kmh W 7.0 mph11.3 kmh 29.95 in1014.2 mb 0.00 in0.0 mm 0.00 in0.0 mm 0.00 in0.0 mm
12:03 PM 61.6°F16.4°C 46.3°F7.9°C 57% 4.0 mph W6.4 kmh W 8.0 mph12.9 kmh 29.92 in1013.2 mb 0.00 in0.0 mm 0.00 in0.0 mm 0.00 in0.0 mm
12:21 PM 61.3°F16.3°C 47.8°F8.8°C 61% 6.0 mph WNW9.7 kmh WNW 8.0 mph12.9 kmh 29.92 in1013.2 mb 0.00 in0.0 mm 0.00 in0.0 mm 0.00 in0.0 mm
01:03 PM 62.0°F16.7°C 48.1°F8.9°C 60% 6.0 mph W9.7 kmh W 9.0 mph14.5 kmh 29.90 in1012.5 mb 0.00 in0.0 mm 0.00 in0.0 mm 0.00 in0.0 mm
01:21 PM 62.2°F16.8°C 48.3°F9.1°C 60% 3.0 mph W4.8 kmh W 7.0 mph11.3 kmh 29.89 in1012.2 mb 0.00 in0.0 mm 0.00 in0.0 mm 0.00 in0.0 mm
01:42 PM 62.1°F16.7°C 48.7°F9.3°C 62% 7.0 mph W11.3 kmh W 11.0 mph17.7 kmh 29.89 in1012.2 mb 0.00 in0.0 mm 0.00 in0.0 mm 0.00 in0.0 mm
02:03 PM 62.1°F16.7°C 49.3°F9.6°C 63% 4.0 mph W6.4 kmh W 9.0 mph14.5 kmh 29.88 in1011.9 mb 0.00 in0.0 mm 0.00 in0.0 mm 0.00 in0.0 mm
02:21 PM 62.9°F17.2°C 49.7°F9.8°C 62% 5.0 mph W8.0 kmh W 8.0 mph12.9 kmh 29.86 in1011.2 mb 0.00 in0.0 mm 0.00 in0.0 mm 0.00 in0.0 mm
02:42 PM 63.5°F17.5°C 50.8°F10.4°C 63% 4.0 mph W6.4 kmh W 9.0 mph14.5 kmh 29.85 in1010.8 mb 0.00 in0.0 mm 0.00 in0.0 mm 0.00 in0.0 mm
03:03 PM 64.1°F17.8°C 52.1°F11.2°C 65% 5.0 mph W8.0 kmh W 8.0 mph12.9 kmh 29.85 in1010.8 mb 0.00 in0.0 mm 0.00 in0.0 mm 0.00 in0.0 mm
03:21 PM 64.4°F18.0°C 52.8°F11.6°C 66% 4.0 mph W6.4 kmh W 9.0 mph14.5 kmh 29.84 in1010.5 mb 0.00 in0.0 mm 0.00 in0.0 mm 0.00 in0.0 mm
03:42 PM 62.6°F17.0°C 52.5°F11.4°C 70% 5.0 mph WNW8.0 kmh WNW 9.0 mph14.5 kmh 29.85 in1010.8 mb 0.00 in0.0 mm 0.00 in0.0 mm 0.00 in0.0 mm
04:03 PM 62.0°F16.7°C 52.7°F11.5°C 72% 5.0 mph W8.0 kmh W 8.0 mph12.9 kmh 29.86 in1011.2 mb 0.00 in0.0 mm 0.00 in0.0 mm 0.00 in0.0 mm
04:21 PM 61.6°F16.4°C 53.0°F11.7°C 73% 5.0 mph W8.0 kmh W 7.0 mph11.3 kmh 29.86 in1011.2 mb 0.00 in0.0 mm 0.00 in0.0 mm 0.00 in0.0 mm
04:42 PM 61.5°F16.4°C 52.8°F11.6°C 73% 4.0 mph W6.4 kmh W 6.0 mph9.7 kmh 29.86 in1011.2 mb 0.00 in0.0 mm 0.00 in0.0 mm 0.00 in0.0 mm
05:03 PM 57.4°F14.1°C 51.9°F11.1°C 82% 2.0 mph W3.2 kmh W 5.0 mph8.0 kmh 29.90 in1012.5 mb 0.00 in0.0 mm 0.00 in0.0 mm 0.00 in0.0 mm
05:21 PM 56.1°F13.4°C 51.7°F10.9°C 85% Calm Calm 2.0 mph3.2 kmh 29.92 in1013.2 mb 0.00 in0.0 mm 0.00 in0.0 mm 0.00 in0.0 mm
05:42 PM 55.1°F12.8°C 51.0°F10.6°C 86% Calm Calm 2.0 mph3.2 kmh 29.92 in1013.2 mb 0.00 in0.0 mm 0.00 in0.0 mm 0.00 in0.0 mm
06:03 PM 53.9°F12.2°C 50.4°F10.2°C 88% 1.0 mph W1.6 kmh W 2.0 mph3.2 kmh 29.93 in1013.5 mb 0.00 in0.0 mm 0.00 in0.0 mm 0.00 in0.0 mm
06:21 PM 52.8°F11.6°C 50.2°F10.1°C 91% Calm Calm 2.0 mph3.2 kmh 29.95 in1014.2 mb 0.00 in0.0 mm 0.00 in0.0 mm 0.00 in0.0 mm
06:42 PM 52.1°F11.2°C 49.9°F9.9°C 92% 1.0 mph W1.6 kmh W 2.0 mph3.2 kmh 29.96 in1014.6 mb 0.00 in0.0 mm 0.00 in0.0 mm 0.00 in0.0 mm
07:21 PM 51.7°F10.9°C 50.4°F10.2°C 95% 1.0 mph W1.6 kmh W 3.0 mph4.8 kmh 29.97 in1014.9 mb 0.00 in0.0 mm 0.00 in0.0 mm 0.00 in0.0 mm
07:42 PM 52.2°F11.2°C 50.8°F10.4°C 95% 2.0 mph W3.2 kmh W 4.0 mph6.4 kmh 29.96 in1014.6 mb 0.00 in0.0 mm 0.00 in0.0 mm 0.00 in0.0 mm
08:21 PM 52.5°F11.4°C 50.8°F10.4°C 94% 2.0 mph W3.2 kmh W 4.0 mph6.4 kmh 29.96 in1014.6 mb 0.00 in0.0 mm 0.00 in0.0 mm 0.00 in0.0 mm
08:42 PM 51.5°F10.8°C 50.0°F10.0°C 94% 2.0 mph W3.2 kmh W 4.0 mph6.4 kmh 29.98 in1015.2 mb 0.00 in0.0 mm 0.00 in0.0 mm 0.00 in0.0 mm
09:03 PM 50.0°F10.0°C 48.5°F9.2°C 94% 1.0 mph W1.6 kmh W 3.0 mph4.8 kmh 29.99 in1015.6 mb 0.00 in0.0 mm 0.00 in0.0 mm 0.00 in0.0 mm
09:21 PM 49.2°F9.6°C 47.8°F8.8°C 95% 2.0 mph W3.2 kmh W 4.0 mph6.4 kmh 29.99 in1015.6 mb 0.00 in0.0 mm 0.00 in0.0 mm 0.00 in0.0 mm
09:42 PM 48.7°F9.3°C 47.1°F8.4°C 94% 1.0 mph W1.6 kmh W 3.0 mph4.8 kmh 30.00 in1015.9 mb 0.00 in0.0 mm 0.00 in0.0 mm 0.00 in0.0 mm
10:03 PM 48.7°F9.3°C 46.0°F7.8°C 91% 2.0 mph W3.2 kmh W 4.0 mph6.4 kmh 30.00 in1015.9 mb 0.00 in0.0 mm 0.00 in0.0 mm 0.00 in0.0 mm
10:21 PM 49.0°F9.4°C 45.5°F7.5°C 88% 3.0 mph W4.8 kmh W 4.0 mph6.4 kmh 29.99 in1015.6 mb 0.00 in0.0 mm 0.00 in0.0 mm 0.00 in0.0 mm
10:42 PM 48.7°F9.3°C 44.7°F7.1°C 86% 2.0 mph NW3.2 kmh NW 7.0 mph11.3 kmh 30.00 in1015.9 mb 0.00 in0.0 mm 0.00 in0.0 mm 0.00 in0.0 mm
11:10 PM 48.0°F8.9°C 44.3°F6.8°C 87% 3.0 mph 4.8 kmh 4.0 mph6.4 kmh 30.00 in1015.9 mb 0.00 in0.0 mm 0.00 in0.0 mm 0.00 in0.0 mm
11:31 PM 48.2°F9.0°C 43.9°F6.6°C 85% 2.0 mph 3.2 kmh 2.0 mph3.2 kmh 30.00 in1015.9 mb 0.00 in0.0 mm 0.00 in0.0 mm 0.00 in0.0 mm
11:52 PM 48.6°F9.2°C 43.9°F6.6°C 84% 2.0 mph NNW3.2 kmh NNW 4.0 mph6.4 kmh 29.99 in1015.6 mb 0.00 in0.0 mm 0.00 in0.0 mm 0.00 in0.0 mm